createdAt,value
2022-11-03T00:01:38.291Z,9.93
2022-11-03T00:04:13.952Z,9.85
2022-11-03T00:06:44.872Z,6.90
2022-11-03T00:09:15.679Z,10.40
2022-11-03T00:11:45.973Z,9.90
2022-11-03T00:14:15.682Z,10.18
2022-11-03T00:16:44.309Z,7.25
2022-11-03T00:19:15.091Z,7.30
2022-11-03T00:21:43.590Z,10.43
2022-11-03T00:24:12.302Z,10.43
2022-11-03T00:26:40.800Z,8.07
2022-11-03T00:29:13.470Z,10.82
2022-11-03T00:31:43.990Z,8.75
2022-11-03T00:34:12.848Z,8.48
2022-11-03T00:36:43.822Z,13.07
2022-11-03T00:39:13.392Z,8.38
2022-11-03T00:41:41.898Z,7.78
2022-11-03T00:44:11.186Z,6.28
2022-11-03T00:46:40.153Z,8.30
2022-11-03T00:49:08.465Z,7.50
2022-11-03T00:51:36.635Z,8.97
2022-11-03T00:54:06.886Z,9.75
2022-11-03T00:56:39.794Z,9.00
2022-11-03T00:59:11.490Z,10.85
2022-11-03T01:01:46.794Z,7.15
2022-11-03T01:04:35.998Z,5.40
2022-11-03T01:07:06.539Z,9.35
2022-11-03T01:09:35.870Z,9.68
2022-11-03T01:12:16.001Z,9.68
2022-11-03T01:14:48.199Z,7.28
2022-11-03T01:17:23.349Z,7.80
2022-11-03T01:19:52.248Z,8.95
2022-11-03T01:22:21.263Z,9.52
2022-11-03T01:24:49.740Z,8.93
2022-11-03T01:27:20.383Z,7.90
2022-11-03T01:29:48.497Z,6.67
2022-11-03T01:32:16.625Z,11.20
2022-11-03T01:34:44.750Z,9.38
2022-11-03T01:37:13.262Z,12.15
2022-11-03T01:39:41.631Z,9.93
2022-11-03T01:42:15.113Z,9.47
2022-11-03T01:44:50.086Z,9.20
2022-11-03T01:47:38.217Z,7.45
2022-11-03T01:50:14.003Z,7.75
2022-11-03T01:52:51.974Z,11.10
2022-11-03T01:55:25.365Z,9.63
2022-11-03T01:58:03.208Z,9.70
2022-11-03T02:00:32.323Z,6.38
2022-11-03T02:03:01.916Z,8.07
2022-11-03T02:05:31.004Z,6.30
2022-11-03T02:08:05.767Z,8.63
2022-11-03T02:10:34.511Z,8.10
2022-11-03T02:13:08.578Z,11.23
2022-11-03T02:15:37.968Z,9.77
2022-11-03T02:18:06.784Z,11.10
2022-11-03T02:20:35.694Z,10.77
2022-11-03T02:23:13.737Z,9.90
2022-11-03T02:25:48.932Z,8.95
2022-11-03T02:28:26.077Z,8.48
2022-11-03T02:31:26.505Z,10.68
2022-11-03T02:34:13.854Z,6.77
2022-11-03T02:37:02.893Z,9.73
2022-11-03T02:39:37.190Z,8.02
2022-11-03T02:42:07.668Z,8.23
2022-11-03T02:44:36.648Z,8.48
2022-11-03T02:47:10.526Z,6.33
2022-11-03T02:49:49.568Z,8.52
2022-11-03T02:52:38.292Z,6.45
2022-11-03T02:55:30.327Z,7.85
2022-11-03T02:58:22.329Z,9.50
2022-11-03T03:01:16.398Z,11.50
2022-11-03T03:03:49.621Z,8.52
2022-11-03T03:06:30.204Z,7.22
2022-11-03T03:09:04.128Z,9.00
2022-11-03T03:11:38.778Z,11.05
2022-11-03T03:14:15.475Z,10.00
2022-11-03T03:17:08.148Z,8.25
2022-11-03T03:19:57.161Z,8.30
2022-11-03T03:22:46.205Z,6.90
2022-11-03T03:25:31.061Z,8.38
2022-11-03T03:28:10.112Z,7.77
2022-11-03T03:30:39.860Z,8.07
2022-11-03T03:33:10.157Z,9.32
2022-11-03T03:35:43.437Z,8.48
2022-11-03T03:38:17.655Z,9.90
2022-11-03T03:40:49.886Z,12.30
2022-11-03T03:43:18.805Z,9.98
2022-11-03T03:45:50.442Z,8.13
2022-11-03T03:48:19.101Z,10.77
2022-11-03T03:50:50.187Z,8.52
2022-11-03T03:53:20.013Z,10.30
2022-11-03T03:55:51.381Z,10.93
2022-11-03T03:58:19.881Z,12.32
2022-11-03T04:00:48.251Z,7.68
2022-11-03T04:03:23.092Z,7.75
2022-11-03T04:05:52.241Z,7.33
2022-11-03T04:08:20.469Z,9.80
2022-11-03T04:11:11.927Z,8.10
2022-11-03T04:13:58.656Z,11.95
2022-11-03T04:16:45.816Z,8.57
2022-11-03T04:19:32.466Z,9.33
2022-11-03T04:22:19.051Z,8.63
2022-11-03T04:24:52.027Z,8.23
2022-11-03T04:27:31.951Z,7.93
2022-11-03T04:30:21.865Z,9.13
2022-11-03T04:32:51.878Z,7.40
2022-11-03T04:35:25.323Z,9.73
2022-11-03T04:38:04.335Z,8.50
2022-11-03T04:40:33.866Z,7.70
2022-11-03T04:43:01.902Z,8.63
2022-11-03T04:45:31.218Z,8.67
2022-11-03T04:48:02.276Z,8.63
2022-11-03T04:50:30.643Z,8.70
2022-11-03T04:52:59.463Z,8.82
2022-11-03T04:55:28.161Z,7.05
2022-11-03T04:58:03.339Z,7.63
2022-11-03T05:00:32.068Z,10.90
2022-11-03T05:03:00.221Z,9.40
2022-11-03T05:05:28.290Z,7.72
2022-11-03T05:07:59.607Z,12.07
2022-11-03T05:10:30.111Z,12.20
2022-11-03T05:13:00.879Z,9.70
2022-11-03T05:15:42.224Z,8.98
2022-11-03T05:18:36.131Z,11.18
2022-11-03T05:21:17.180Z,10.23
2022-11-03T05:23:52.473Z,10.83
2022-11-03T05:26:35.952Z,10.10
2022-11-03T05:29:20.973Z,8.38
2022-11-03T05:31:51.579Z,9.93
2022-11-03T05:34:31.765Z,10.05
2022-11-03T05:37:12.501Z,11.27
2022-11-03T05:39:46.717Z,12.05
2022-11-03T05:42:23.718Z,8.00
2022-11-03T05:44:52.663Z,10.38
2022-11-03T05:47:28.192Z,8.85
2022-11-03T05:50:02.664Z,12.40
2022-11-03T05:52:30.903Z,9.82
2022-11-03T05:55:03.037Z,11.18
2022-11-03T05:57:34.517Z,10.02
2022-11-03T06:00:09.049Z,8.70
2022-11-03T06:02:44.208Z,12.33
2022-11-03T06:05:23.861Z,13.68
2022-11-03T06:07:54.993Z,7.57
2022-11-03T06:10:30.324Z,12.15
2022-11-03T06:13:08.978Z,11.93
2022-11-03T06:15:38.349Z,7.43
2022-11-03T06:18:35.716Z,19.92
2022-11-03T06:21:23.381Z,9.80
2022-11-03T06:23:52.655Z,9.73
2022-11-03T06:26:25.267Z,8.10
2022-11-03T06:28:53.843Z,8.73
2022-11-03T06:31:31.057Z,7.10
2022-11-03T06:34:00.250Z,8.93
2022-11-03T06:36:37.879Z,8.73
2022-11-03T06:39:26.298Z,10.35
2022-11-03T06:41:54.847Z,7.80
2022-11-03T06:44:29.053Z,11.35
2022-11-03T06:47:07.764Z,11.10
2022-11-03T06:49:36.657Z,9.18
2022-11-03T06:52:26.380Z,9.27
2022-11-03T06:55:15.592Z,10.40
2022-11-03T06:57:47.781Z,10.82
2022-11-03T07:00:33.452Z,8.20
2022-11-03T07:03:08.127Z,11.68
2022-11-03T07:05:38.033Z,12.02
2022-11-03T07:08:24.441Z,12.20
2022-11-03T07:11:28.996Z,17.48
2022-11-03T07:14:14.259Z,17.33
2022-11-03T07:16:47.929Z,14.35
2022-11-03T07:19:19.865Z,14.15
2022-11-03T07:21:56.934Z,15.43
2022-11-03T07:24:46.443Z,19.15
2022-11-03T07:27:29.835Z,14.18
2022-11-03T07:30:24.832Z,19.83
2022-11-03T07:32:54.980Z,21.08
2022-11-03T07:36:00.443Z,18.47
2022-11-03T07:38:26.815Z,20.83
2022-11-03T07:40:59.608Z,23.92
2022-11-03T07:43:34.020Z,19.02
2022-11-03T07:46:04.341Z,21.25
2022-11-03T07:48:40.069Z,18.20
2022-11-03T07:51:27.219Z,26.00
2022-11-03T07:54:08.561Z,20.13
2022-11-03T07:56:42.936Z,20.35
2022-11-03T07:59:12.212Z,17.33
2022-11-03T08:01:48.316Z,16.37
2022-11-03T08:04:42.967Z,17.23
2022-11-03T08:07:11.116Z,18.38
2022-11-03T08:09:39.030Z,17.70
2022-11-03T08:12:07.425Z,19.15
2022-11-03T08:14:35.744Z,13.43
2022-11-03T08:17:03.828Z,13.77
2022-11-03T08:19:31.931Z,13.38
2022-11-03T08:22:00.011Z,19.08
2022-11-03T08:24:28.145Z,15.23
2022-11-03T08:26:56.306Z,18.97
2022-11-03T08:29:27.594Z,17.95
2022-11-03T08:31:55.840Z,13.07
2022-11-03T08:34:23.724Z,13.95
2022-11-03T08:36:51.760Z,17.58
2022-11-03T08:39:20.316Z,13.33
2022-11-03T08:41:48.461Z,16.17
2022-11-03T08:44:16.185Z,12.80
2022-11-03T08:46:44.256Z,19.90
2022-11-03T08:49:12.163Z,16.10
2022-11-03T08:51:44.173Z,16.03
2022-11-03T08:54:13.059Z,22.02
2022-11-03T08:56:40.710Z,18.52
2022-11-03T08:59:09.447Z,25.95
2022-11-03T09:01:37.613Z,18.60
2022-11-03T09:04:05.866Z,22.43
2022-11-03T09:06:34.384Z,21.35
2022-11-03T09:11:50.510Z,22.17
2022-11-03T09:14:18.567Z,20.50
2022-11-03T09:16:46.804Z,22.83
2022-11-03T09:19:15.096Z,22.75
2022-11-03T09:21:46.382Z,19.67
2022-11-03T09:24:14.920Z,19.60
2022-11-03T09:26:42.702Z,20.27
2022-11-03T09:29:10.892Z,20.93
2022-11-03T09:31:44.986Z,23.88
2022-11-03T09:34:13.399Z,19.52
2022-11-03T09:36:41.501Z,19.40
2022-11-03T09:39:09.818Z,15.02
2022-11-03T09:41:57.913Z,19.10
2022-11-03T09:44:26.490Z,19.25
2022-11-03T09:46:58.188Z,16.83
2022-11-03T09:49:29.103Z,16.67
2022-11-03T09:51:57.435Z,13.57
2022-11-03T09:54:27.633Z,14.73
2022-11-03T09:56:59.467Z,18.92
2022-11-03T09:59:28.502Z,17.80
2022-11-03T10:01:57.170Z,21.05
2022-11-03T10:04:29.345Z,16.20
2022-11-03T10:06:59.040Z,15.20
2022-11-03T10:09:30.004Z,17.35
2022-11-03T10:11:58.085Z,17.40
2022-11-03T10:14:26.063Z,15.10
2022-11-03T10:17:01.007Z,14.57
2022-11-03T10:19:29.228Z,18.20
2022-11-03T10:21:57.060Z,18.13
2022-11-03T10:24:26.229Z,14.82
2022-11-03T10:26:57.439Z,16.33
2022-11-03T10:29:27.647Z,12.98
2022-11-03T10:31:58.983Z,12.33
2022-11-03T10:34:39.892Z,17.05
2022-11-03T10:37:26.453Z,12.23
2022-11-03T10:39:56.551Z,14.55
2022-11-03T10:42:35.227Z,11.98
2022-11-03T10:45:15.875Z,12.37
2022-11-03T10:47:44.066Z,14.40
2022-11-03T10:50:26.357Z,12.02
2022-11-03T10:52:55.093Z,11.20
2022-11-03T10:55:26.064Z,11.68
2022-11-03T10:57:58.668Z,12.47
2022-11-03T11:00:28.184Z,11.70
2022-11-03T11:03:01.239Z,13.50
2022-11-03T11:05:30.246Z,11.98
2022-11-03T11:08:00.502Z,10.98
2022-11-03T11:10:32.068Z,12.77
2022-11-03T11:13:07.721Z,12.45
2022-11-03T11:15:42.572Z,8.32
2022-11-03T11:18:11.547Z,13.73
2022-11-03T11:20:44.792Z,13.70
2022-11-03T11:23:28.035Z,13.97
2022-11-03T11:26:11.754Z,9.40
2022-11-03T11:28:40.968Z,11.85
2022-11-03T11:31:27.516Z,11.48
2022-11-03T11:34:17.479Z,10.90
2022-11-03T11:36:51.039Z,9.40
2022-11-03T11:39:25.386Z,8.68
2022-11-03T11:42:14.644Z,10.50
2022-11-03T11:44:55.145Z,10.40
2022-11-03T11:47:50.647Z,8.85
2022-11-03T11:50:24.185Z,10.23
2022-11-03T11:52:59.978Z,9.05
2022-11-03T11:55:35.582Z,12.95
2022-11-03T11:58:05.344Z,11.75
2022-11-03T12:00:35.554Z,8.85
2022-11-03T12:03:07.112Z,9.53
2022-11-03T12:05:36.433Z,9.50
2022-11-03T12:08:21.701Z,14.05
2022-11-03T12:10:57.789Z,8.82
2022-11-03T12:13:51.675Z,9.95
2022-11-03T12:16:38.677Z,9.83
2022-11-03T12:19:38.879Z,8.80
2022-11-03T12:22:11.088Z,13.77
2022-11-03T12:24:49.120Z,9.98
2022-11-03T12:27:25.183Z,8.55
2022-11-03T12:29:55.120Z,12.37
2022-11-03T12:32:33.792Z,8.73
2022-11-03T12:35:08.807Z,10.70
2022-11-03T12:37:38.871Z,11.27
2022-11-03T12:40:07.464Z,12.60
2022-11-03T12:42:35.745Z,8.40
2022-11-03T12:45:03.835Z,10.20
2022-11-03T12:47:31.495Z,12.50
2022-11-03T12:50:00.044Z,10.43
2022-11-03T12:52:31.237Z,9.32
2022-11-03T12:54:59.534Z,8.27
2022-11-03T12:57:27.670Z,9.77
2022-11-03T12:59:56.195Z,13.50
2022-11-03T13:02:24.554Z,12.63
2022-11-03T13:04:53.028Z,8.45
2022-11-03T13:07:27.744Z,8.80
2022-11-03T13:09:58.698Z,11.30
2022-11-03T13:12:32.513Z,9.27
2022-11-03T13:15:02.569Z,8.55
2022-11-03T13:17:40.196Z,10.27
2022-11-03T13:20:19.085Z,9.70
2022-11-03T13:22:47.262Z,11.85
2022-11-03T13:25:15.769Z,10.70
2022-11-03T13:27:43.861Z,14.23
2022-11-03T13:30:12.720Z,10.63
2022-11-03T13:32:40.620Z,8.40
2022-11-03T13:35:13.770Z,12.40
2022-11-03T13:37:42.984Z,8.50
2022-11-03T13:40:35.871Z,10.73
2022-11-03T13:43:01.779Z,12.35
2022-11-03T13:45:30.743Z,12.43
2022-11-03T13:50:47.400Z,13.35
2022-11-03T13:56:08.483Z,11.13
2022-11-03T14:01:29.547Z,13.82
2022-11-03T14:06:47.401Z,13.57
2022-11-03T14:09:16.503Z,16.15
2022-11-03T14:12:03.162Z,10.53
2022-11-03T14:14:31.734Z,10.80
2022-11-03T14:16:59.655Z,15.85
2022-11-03T14:19:35.500Z,12.90
2022-11-03T14:22:08.531Z,16.25
2022-11-03T14:24:36.488Z,11.80
2022-11-03T14:27:05.183Z,12.98
2022-11-03T14:29:33.388Z,12.90
2022-11-03T14:32:02.157Z,12.40
2022-11-03T14:34:30.981Z,16.50
2022-11-03T14:36:59.195Z,15.17
2022-11-03T14:39:27.509Z,12.05
2022-11-03T14:42:05.066Z,16.83
2022-11-03T14:44:38.835Z,11.13
2022-11-03T14:47:09.543Z,11.15
2022-11-03T14:49:37.981Z,11.07
2022-11-03T14:52:07.832Z,11.05
2022-11-03T14:54:36.885Z,12.50
2022-11-03T14:57:05.697Z,10.70
2022-11-03T14:59:35.452Z,15.63
2022-11-03T15:02:04.925Z,10.17
2022-11-03T15:04:35.388Z,12.18
2022-11-03T15:07:03.700Z,15.70
2022-11-03T15:09:37.950Z,13.00
2022-11-03T15:12:06.160Z,10.68
2022-11-03T15:14:34.462Z,14.17
2022-11-03T15:17:02.539Z,13.50
2022-11-03T15:19:30.433Z,13.80
2022-11-03T15:21:58.357Z,13.68
2022-11-03T15:27:14.606Z,13.80
2022-11-03T15:29:42.413Z,16.35
2022-11-03T15:32:18.230Z,12.80
2022-11-03T15:34:46.411Z,15.60
2022-11-03T15:37:14.412Z,13.68
2022-11-03T15:39:42.593Z,17.10
2022-11-03T15:42:10.554Z,18.55
2022-11-03T15:44:38.777Z,16.15
2022-11-03T15:47:07.825Z,16.58
2022-11-03T15:49:36.091Z,15.55
2022-11-03T15:52:04.777Z,15.27
2022-11-03T15:54:36.167Z,15.82
2022-11-03T15:57:06.898Z,14.85
2022-11-03T15:59:35.094Z,16.25
2022-11-03T16:02:14.143Z,17.42
2022-11-03T16:04:51.788Z,21.33
2022-11-03T16:07:19.700Z,19.83
2022-11-03T16:09:48.186Z,17.90
2022-11-03T16:12:16.829Z,18.23
2022-11-03T16:14:45.216Z,18.05
2022-11-03T16:17:12.978Z,20.20
2022-11-03T16:19:41.327Z,19.17
2022-11-03T16:22:09.251Z,16.90
2022-11-03T16:24:37.932Z,22.92
2022-11-03T16:27:06.152Z,19.40
2022-11-03T16:29:34.556Z,23.38
2022-11-03T16:32:06.237Z,20.17
2022-11-03T16:34:34.182Z,24.50
2022-11-03T16:37:02.161Z,17.38
2022-11-03T16:39:30.683Z,22.83
2022-11-03T16:41:58.651Z,19.17
2022-11-03T16:44:26.921Z,21.70
2022-11-03T16:46:55.270Z,19.17
2022-11-03T16:49:23.354Z,20.23
2022-11-03T16:51:51.288Z,19.92
2022-11-03T16:54:19.645Z,20.30
2022-11-03T16:56:53.465Z,20.17
2022-11-03T16:59:24.808Z,18.98
2022-11-03T17:01:54.207Z,24.27
2022-11-03T17:04:22.057Z,25.73
2022-11-03T17:06:50.285Z,23.75
2022-11-03T17:09:17.945Z,22.40
2022-11-03T17:11:45.981Z,21.38
2022-11-03T17:14:14.376Z,23.92
2022-11-03T17:16:49.185Z,26.83
2022-11-03T17:19:17.661Z,20.65
2022-11-03T17:21:46.335Z,22.90
2022-11-03T17:24:14.259Z,22.42
2022-11-03T17:26:59.954Z,25.05
2022-11-03T17:29:36.910Z,23.02
2022-11-03T17:32:09.209Z,23.40
2022-11-03T17:34:38.705Z,24.27
2022-11-03T17:37:06.787Z,20.50
2022-11-03T17:39:37.813Z,19.90
2022-11-03T17:42:19.014Z,21.38
2022-11-03T17:44:50.217Z,18.23
2022-11-03T17:47:19.599Z,15.83
2022-11-03T17:49:48.530Z,15.18
2022-11-03T17:52:25.055Z,13.63
2022-11-03T17:54:58.820Z,15.93
2022-11-03T17:57:28.042Z,19.40
2022-11-03T17:59:58.672Z,15.47
2022-11-03T18:02:35.009Z,15.87
2022-11-03T18:05:15.331Z,17.10
2022-11-03T18:07:46.832Z,18.33
2022-11-03T18:10:15.272Z,21.77
2022-11-03T18:13:07.815Z,19.90
2022-11-03T18:15:39.709Z,22.80
2022-11-03T18:18:31.740Z,21.45
2022-11-03T18:21:00.461Z,24.60
2022-11-03T18:23:32.271Z,37.42
2022-11-03T18:26:10.296Z,35.80
2022-11-03T18:28:38.967Z,27.83
2022-11-03T18:31:10.509Z,20.83
2022-11-03T18:33:38.760Z,20.02
2022-11-03T18:36:07.960Z,27.38
2022-11-03T18:38:37.643Z,20.23
2022-11-03T18:41:29.059Z,20.60
2022-11-03T18:43:57.257Z,18.00
2022-11-03T18:46:25.206Z,20.80
2022-11-03T18:48:53.495Z,21.63
2022-11-03T18:51:21.481Z,17.73
2022-11-03T18:53:50.330Z,17.43
2022-11-03T18:56:21.261Z,19.35
2022-11-03T18:58:53.704Z,21.85
2022-11-03T19:01:25.629Z,17.63
2022-11-03T19:03:54.129Z,17.80
2022-11-03T19:06:22.372Z,20.60
2022-11-03T19:09:00.304Z,17.23
2022-11-03T19:11:28.672Z,17.63
2022-11-03T19:13:56.634Z,23.33
2022-11-03T19:16:25.272Z,18.10
2022-11-03T19:18:53.771Z,15.13
2022-11-03T19:21:24.448Z,17.05
2022-11-03T19:23:57.984Z,16.45
2022-11-03T19:26:28.276Z,20.25
2022-11-03T19:29:25.750Z,16.50
2022-11-03T19:31:54.546Z,17.20
2022-11-03T19:34:27.357Z,14.23
2022-11-03T19:36:56.082Z,14.90
2022-11-03T19:39:40.572Z,14.88
2022-11-03T19:42:33.908Z,18.77
2022-11-03T19:45:11.822Z,18.30
2022-11-03T19:48:10.617Z,23.25
2022-11-03T19:50:37.894Z,22.75
2022-11-03T19:53:07.415Z,15.68
2022-11-03T19:55:39.310Z,16.25
2022-11-03T19:58:22.494Z,18.93
2022-11-03T20:00:51.796Z,18.58
2022-11-03T20:03:20.071Z,19.08
2022-11-03T20:05:51.063Z,17.70
2022-11-03T20:08:23.016Z,18.85
2022-11-03T20:10:51.886Z,17.13
2022-11-03T20:13:25.918Z,16.88
2022-11-03T20:15:59.077Z,19.65
2022-11-03T20:18:29.361Z,17.00
2022-11-03T20:20:57.498Z,16.70
2022-11-03T20:23:30.319Z,17.87
2022-11-03T20:25:59.116Z,17.33
2022-11-03T20:28:30.464Z,16.88
2022-11-03T20:31:01.625Z,19.45
2022-11-03T20:33:31.172Z,24.67
2022-11-03T20:35:59.534Z,17.03
2022-11-03T20:38:29.002Z,15.15
2022-11-03T20:41:01.162Z,16.45
2022-11-03T20:43:41.519Z,18.85
2022-11-03T20:46:24.793Z,18.00
2022-11-03T20:48:55.877Z,21.67
2022-11-03T20:51:33.937Z,16.42
2022-11-03T20:54:17.068Z,17.10
2022-11-03T20:56:46.477Z,16.55
2022-11-03T20:59:18.336Z,21.38
2022-11-03T21:01:47.141Z,20.60
2022-11-03T21:04:17.772Z,19.35
2022-11-03T21:06:48.887Z,17.17
2022-11-03T21:09:18.947Z,15.32
2022-11-03T21:11:48.372Z,20.17
2022-11-03T21:14:21.890Z,19.37
2022-11-03T21:17:08.765Z,19.33
2022-11-03T21:19:55.515Z,18.90
2022-11-03T21:22:51.803Z,18.27
2022-11-03T21:25:24.235Z,18.63
2022-11-03T21:27:54.726Z,17.87
2022-11-03T21:30:23.637Z,18.08
2022-11-03T21:32:52.058Z,15.73
2022-11-03T21:35:21.948Z,17.27
2022-11-03T21:37:50.192Z,19.38
2022-11-03T21:40:18.769Z,20.27
2022-11-03T21:43:05.530Z,19.80
2022-11-03T21:45:34.054Z,21.17
2022-11-03T21:48:20.953Z,28.30
2022-11-03T21:50:49.873Z,30.25
2022-11-03T21:53:18.035Z,26.20
2022-11-03T21:55:49.039Z,28.65
2022-11-03T21:58:17.589Z,24.52
2022-11-03T22:00:47.686Z,34.97
2022-11-03T22:03:18.971Z,33.45
2022-11-03T22:05:47.327Z,30.17
2022-11-03T22:08:15.558Z,30.05
2022-11-03T22:10:43.811Z,27.00
2022-11-03T22:13:11.871Z,21.90
2022-11-03T22:15:58.717Z,20.40
2022-11-03T22:18:26.745Z,20.83
2022-11-03T22:21:13.111Z,18.20
2022-11-03T22:23:59.650Z,16.88
2022-11-03T22:26:46.467Z,16.05
2022-11-03T22:29:32.944Z,15.77
2022-11-03T22:32:01.234Z,15.47
2022-11-03T22:34:47.642Z,14.85
2022-11-03T22:37:15.858Z,15.40
2022-11-03T22:40:02.533Z,17.42
2022-11-03T22:42:49.198Z,16.77
2022-11-03T22:45:35.821Z,17.33
2022-11-03T22:48:05.972Z,13.55
2022-11-03T22:50:34.456Z,14.13
2022-11-03T22:53:22.465Z,14.88
2022-11-03T22:55:50.679Z,14.43
2022-11-03T22:58:19.286Z,15.63
2022-11-03T23:00:50.798Z,14.70
2022-11-03T23:03:19.544Z,17.55
2022-11-03T23:05:47.749Z,17.60
2022-11-03T23:08:15.980Z,16.05
2022-11-03T23:10:44.506Z,14.23
2022-11-03T23:13:13.151Z,13.82
2022-11-03T23:15:44.497Z,13.23
2022-11-03T23:18:31.364Z,17.33
2022-11-03T23:21:08.214Z,14.52
2022-11-03T23:23:57.718Z,15.50
2022-11-03T23:26:27.652Z,13.77
2022-11-03T23:28:55.785Z,16.25
2022-11-03T23:31:24.104Z,15.23
2022-11-03T23:33:52.688Z,15.68
2022-11-03T23:36:21.458Z,15.07
2022-11-03T23:38:50.092Z,16.17
2022-11-03T23:41:20.256Z,16.95
2022-11-03T23:43:48.731Z,17.10
2022-11-03T23:46:37.721Z,14.48
2022-11-03T23:49:06.656Z,16.77
2022-11-03T23:51:36.270Z,13.97
2022-11-03T23:54:07.357Z,14.63
2022-11-03T23:56:57.682Z,15.65
2022-11-03T23:59:26.858Z,16.80
